sensor_id;sensor_type;location;lat;lon;timestamp;pressure;altitude;pressure_sealevel;temperature;humidity
57644;BME280;43474;46.510;6.686;2023-05-21T00:00:21;96005.03;;;12.38;100.00
57644;BME280;43474;46.510;6.686;2023-05-21T00:03:07;96014.06;;;12.42;100.00
57644;BME280;43474;46.510;6.686;2023-05-21T00:05:41;95995.75;;;12.41;100.00
57644;BME280;43474;46.510;6.686;2023-05-21T00:08:07;96015.94;;;12.42;100.00
57644;BME280;43474;46.510;6.686;2023-05-21T00:10:33;95994.63;;;12.32;100.00
57644;BME280;43474;46.510;6.686;2023-05-21T00:12:58;96009.06;;;12.46;100.00
57644;BME280;43474;46.510;6.686;2023-05-21T00:15:24;95990.72;;;12.45;100.00
57644;BME280;43474;46.510;6.686;2023-05-21T00:17:50;95993.66;;;12.48;100.00
57644;BME280;43474;46.510;6.686;2023-05-21T00:20:16;95993.94;;;12.52;100.00
57644;BME280;43474;46.510;6.686;2023-05-21T00:22:41;95988.28;;;12.43;100.00
57644;BME280;43474;46.510;6.686;2023-05-21T00:25:09;96003.22;;;12.49;100.00
57644;BME280;43474;46.510;6.686;2023-05-21T00:27:36;95990.44;;;12.41;100.00
57644;BME280;43474;46.510;6.686;2023-05-21T00:30:03;95986.16;;;12.35;100.00
57644;BME280;43474;46.510;6.686;2023-05-21T00:32:28;95985.84;;;12.26;100.00
57644;BME280;43474;46.510;6.686;2023-05-21T00:34:54;95990.84;;;12.23;100.00
57644;BME280;43474;46.510;6.686;2023-05-21T00:37:19;95979.63;;;12.10;100.00
57644;BME280;43474;46.510;6.686;2023-05-21T00:39:46;95989.19;;;12.11;100.00
57644;BME280;43474;46.510;6.686;2023-05-21T00:42:12;95972.41;;;12.01;100.00
57644;BME280;43474;46.510;6.686;2023-05-21T00:44:45;95989.97;;;12.07;100.00
57644;BME280;43474;46.510;6.686;2023-05-21T00:47:12;95983.06;;;12.06;100.00
57644;BME280;43474;46.510;6.686;2023-05-21T00:49:38;95963.91;;;11.99;100.00
57644;BME280;43474;46.510;6.686;2023-05-21T00:52:04;95969.25;;;12.04;100.00
57644;BME280;43474;46.510;6.686;2023-05-21T00:54:31;95964.13;;;11.97;100.00
57644;BME280;43474;46.510;6.686;2023-05-21T00:56:57;95980.13;;;12.07;100.00
57644;BME280;43474;46.510;6.686;2023-05-21T00:59:23;95973.19;;;12.01;100.00
57644;BME280;43474;46.510;6.686;2023-05-21T01:01:48;95970.88;;;12.10;100.00
57644;BME280;43474;46.510;6.686;2023-05-21T01:04:23;95970.91;;;12.15;100.00
57644;BME280;43474;46.510;6.686;2023-05-21T01:06:55;95980.22;;;12.23;100.00
57644;BME280;43474;46.510;6.686;2023-05-21T01:09:20;95975.44;;;12.20;100.00
57644;BME280;43474;46.510;6.686;2023-05-21T01:11:49;95967.22;;;12.21;100.00
57644;BME280;43474;46.510;6.686;2023-05-21T01:14:16;95977.06;;;12.26;100.00
57644;BME280;43474;46.510;6.686;2023-05-21T01:16:45;95981.78;;;12.13;100.00
57644;BME280;43474;46.510;6.686;2023-05-21T01:19:20;95961.50;;;11.97;100.00
57644;BME280;43474;46.510;6.686;2023-05-21T01:21:52;95983.78;;;11.96;100.00
57644;BME280;43474;46.510;6.686;2023-05-21T01:24:20;95951.81;;;11.81;100.00
57644;BME280;43474;46.510;6.686;2023-05-21T01:26:46;95979.97;;;11.82;100.00
57644;BME280;43474;46.510;6.686;2023-05-21T01:29:12;95985.63;;;11.63;100.00
57644;BME280;43474;46.510;6.686;2023-05-21T01:34:29;95990.59;;;11.50;100.00
57644;BME280;43474;46.510;6.686;2023-05-21T01:37:07;95989.00;;;11.49;100.00
57644;BME280;43474;46.510;6.686;2023-05-21T01:39:38;96000.69;;;11.53;100.00
57644;BME280;43474;46.510;6.686;2023-05-21T01:42:09;95995.50;;;11.36;100.00
57644;BME280;43474;46.510;6.686;2023-05-21T01:44:35;95992.66;;;11.48;100.00
57644;BME280;43474;46.510;6.686;2023-05-21T01:47:02;96001.44;;;11.48;100.00
57644;BME280;43474;46.510;6.686;2023-05-21T01:49:29;95983.56;;;11.38;100.00
57644;BME280;43474;46.510;6.686;2023-05-21T01:51:55;95991.56;;;11.44;100.00
57644;BME280;43474;46.510;6.686;2023-05-21T01:54:20;95997.41;;;11.41;100.00
57644;BME280;43474;46.510;6.686;2023-05-21T01:56:47;95986.19;;;11.33;100.00
57644;BME280;43474;46.510;6.686;2023-05-21T01:59:14;95982.50;;;11.34;100.00
57644;BME280;43474;46.510;6.686;2023-05-21T02:01:41;95977.41;;;11.33;100.00
57644;BME280;43474;46.510;6.686;2023-05-21T02:04:07;95981.03;;;11.22;100.00
57644;BME280;43474;46.510;6.686;2023-05-21T02:06:32;95984.22;;;11.24;100.00
57644;BME280;43474;46.510;6.686;2023-05-21T02:09:00;95982.78;;;11.11;100.00
57644;BME280;43474;46.510;6.686;2023-05-21T02:11:26;95992.75;;;11.26;100.00
57644;BME280;43474;46.510;6.686;2023-05-21T02:13:52;95995.72;;;11.29;100.00
57644;BME280;43474;46.510;6.686;2023-05-21T02:16:19;95996.75;;;11.28;100.00
57644;BME280;43474;46.510;6.686;2023-05-21T02:18:44;95993.50;;;11.21;100.00
57644;BME280;43474;46.510;6.686;2023-05-21T02:21:10;95982.13;;;11.26;100.00
57644;BME280;43474;46.510;6.686;2023-05-21T02:23:36;95994.09;;;11.28;100.00
57644;BME280;43474;46.510;6.686;2023-05-21T02:26:02;95997.75;;;11.22;100.00
57644;BME280;43474;46.510;6.686;2023-05-21T02:28:28;95995.00;;;11.39;100.00
57644;BME280;43474;46.510;6.686;2023-05-21T02:30:54;95981.94;;;11.32;100.00
57644;BME280;43474;46.510;6.686;2023-05-21T02:33:20;95985.94;;;11.35;100.00
57644;BME280;43474;46.510;6.686;2023-05-21T02:35:46;95992.88;;;11.41;100.00
57644;BME280;43474;46.510;6.686;2023-05-21T02:38:12;95979.84;;;11.34;100.00
57644;BME280;43474;46.510;6.686;2023-05-21T02:40:38;95976.34;;;11.29;100.00
57644;BME280;43474;46.510;6.686;2023-05-21T02:43:05;95981.75;;;11.39;100.00
57644;BME280;43474;46.510;6.686;2023-05-21T02:45:30;95978.22;;;11.33;100.00
57644;BME280;43474;46.510;6.686;2023-05-21T02:47:56;95979.09;;;11.39;100.00
57644;BME280;43474;46.510;6.686;2023-05-21T02:50:21;95983.56;;;11.38;100.00
57644;BME280;43474;46.510;6.686;2023-05-21T02:52:47;95990.16;;;11.31;100.00
57644;BME280;43474;46.510;6.686;2023-05-21T02:55:13;95981.47;;;11.13;100.00
57644;BME280;43474;46.510;6.686;2023-05-21T02:57:39;95967.47;;;11.18;100.00
57644;BME280;43474;46.510;6.686;2023-05-21T03:00:05;95986.38;;;11.27;100.00
57644;BME280;43474;46.510;6.686;2023-05-21T03:02:32;95985.09;;;11.29;100.00
57644;BME280;43474;46.510;6.686;2023-05-21T03:04:58;95977.38;;;11.28;100.00
57644;BME280;43474;46.510;6.686;2023-05-21T03:07:23;95968.56;;;11.22;100.00
57644;BME280;43474;46.510;6.686;2023-05-21T03:09:49;95982.13;;;11.26;100.00
57644;BME280;43474;46.510;6.686;2023-05-21T03:12:14;95973.09;;;11.22;100.00
57644;BME280;43474;46.510;6.686;2023-05-21T03:14:40;95967.41;;;11.13;100.00
57644;BME280;43474;46.510;6.686;2023-05-21T03:17:08;95982.53;;;11.12;100.00
57644;BME280;43474;46.510;6.686;2023-05-21T03:19:39;95974.16;;;10.99;100.00
57644;BME280;43474;46.510;6.686;2023-05-21T03:22:05;95966.34;;;11.09;100.00
57644;BME280;43474;46.510;6.686;2023-05-21T03:24:31;95987.34;;;11.16;100.00
57644;BME280;43474;46.510;6.686;2023-05-21T03:26:58;95975.16;;;11.15;100.00
57644;BME280;43474;46.510;6.686;2023-05-21T03:29:25;95976.59;;;11.00;100.00
57644;BME280;43474;46.510;6.686;2023-05-21T03:31:53;95982.25;;;11.09;100.00
57644;BME280;43474;46.510;6.686;2023-05-21T03:34:19;95973.31;;;10.93;100.00
57644;BME280;43474;46.510;6.686;2023-05-21T03:36:45;95984.28;;;11.02;100.00
57644;BME280;43474;46.510;6.686;2023-05-21T03:39:11;95989.28;;;10.98;100.00
57644;BME280;43474;46.510;6.686;2023-05-21T03:41:37;95978.41;;;10.95;100.00
57644;BME280;43474;46.510;6.686;2023-05-21T03:44:02;95974.38;;;10.92;100.00
57644;BME280;43474;46.510;6.686;2023-05-21T03:46:28;95979.19;;;10.95;100.00
57644;BME280;43474;46.510;6.686;2023-05-21T03:48:54;95979.94;;;10.91;100.00
57644;BME280;43474;46.510;6.686;2023-05-21T03:51:19;95995.19;;;11.05;100.00
57644;BME280;43474;46.510;6.686;2023-05-21T03:53:45;95999.09;;;10.98;100.00
57644;BME280;43474;46.510;6.686;2023-05-21T03:56:10;95982.00;;;10.88;100.00
57644;BME280;43474;46.510;6.686;2023-05-21T03:58:36;95986.94;;;11.02;100.00
57644;BME280;43474;46.510;6.686;2023-05-21T04:01:02;95995.00;;;11.12;100.00
57644;BME280;43474;46.510;6.686;2023-05-21T04:03:29;95985.41;;;11.06;100.00
57644;BME280;43474;46.510;6.686;2023-05-21T04:05:56;96006.44;;;11.18;100.00
57644;BME280;43474;46.510;6.686;2023-05-21T04:08:22;96004.50;;;11.08;100.00
57644;BME280;43474;46.510;6.686;2023-05-21T04:10:47;95997.16;;;11.15;100.00
57644;BME280;43474;46.510;6.686;2023-05-21T04:13:13;96008.34;;;11.22;100.00
57644;BME280;43474;46.510;6.686;2023-05-21T04:15:39;95999.91;;;11.25;100.00
57644;BME280;43474;46.510;6.686;2023-05-21T04:18:04;96007.88;;;11.25;100.00
57644;BME280;43474;46.510;6.686;2023-05-21T04:20:31;96010.97;;;11.17;100.00
57644;BME280;43474;46.510;6.686;2023-05-21T04:22:56;96010.91;;;11.12;100.00
57644;BME280;43474;46.510;6.686;2023-05-21T04:25:22;96014.66;;;11.16;100.00
57644;BME280;43474;46.510;6.686;2023-05-21T04:27:51;96020.72;;;11.11;100.00
57644;BME280;43474;46.510;6.686;2023-05-21T04:30:16;96014.34;;;11.12;100.00
57644;BME280;43474;46.510;6.686;2023-05-21T04:32:44;96027.19;;;11.21;100.00
57644;BME280;43474;46.510;6.686;2023-05-21T04:35:10;96022.69;;;11.21;100.00
57644;BME280;43474;46.510;6.686;2023-05-21T04:37:36;96023.25;;;11.28;100.00
57644;BME280;43474;46.510;6.686;2023-05-21T04:40:09;96023.16;;;11.18;100.00
57644;BME280;43474;46.510;6.686;2023-05-21T04:42:34;96043.47;;;11.29;100.00
57644;BME280;43474;46.510;6.686;2023-05-21T04:45:00;96048.03;;;11.34;100.00
57644;BME280;43474;46.510;6.686;2023-05-21T04:47:26;96046.97;;;11.35;100.00
57644;BME280;43474;46.510;6.686;2023-05-21T04:49:54;96057.38;;;11.42;100.00
57644;BME280;43474;46.510;6.686;2023-05-21T04:52:20;96051.63;;;11.50;100.00
57644;BME280;43474;46.510;6.686;2023-05-21T04:54:46;96051.91;;;11.53;100.00
57644;BME280;43474;46.510;6.686;2023-05-21T04:57:12;96044.50;;;11.55;100.00
57644;BME280;43474;46.510;6.686;2023-05-21T04:59:37;96045.59;;;11.59;100.00
57644;BME280;43474;46.510;6.686;2023-05-21T05:02:04;96039.03;;;11.67;100.00
57644;BME280;43474;46.510;6.686;2023-05-21T05:04:30;96035.88;;;11.70;100.00
57644;BME280;43474;46.510;6.686;2023-05-21T05:06:56;96061.22;;;11.83;100.00
57644;BME280;43474;46.510;6.686;2023-05-21T05:09:21;96062.88;;;11.89;100.00
57644;BME280;43474;46.510;6.686;2023-05-21T05:11:49;96068.28;;;11.99;100.00
57644;BME280;43474;46.510;6.686;2023-05-21T05:14:15;96053.06;;;11.89;100.00
57644;BME280;43474;46.510;6.686;2023-05-21T05:16:41;96066.41;;;12.00;100.00
57644;BME280;43474;46.510;6.686;2023-05-21T05:19:07;96070.66;;;12.01;100.00
57644;BME280;43474;46.510;6.686;2023-05-21T05:21:33;96069.97;;;12.15;100.00
57644;BME280;43474;46.510;6.686;2023-05-21T05:24:01;96063.16;;;12.25;100.00
57644;BME280;43474;46.510;6.686;2023-05-21T05:26:27;96055.75;;;12.32;100.00
57644;BME280;43474;46.510;6.686;2023-05-21T05:28:53;96063.22;;;12.35;100.00
57644;BME280;43474;46.510;6.686;2023-05-21T05:31:18;96055.47;;;12.28;100.00
57644;BME280;43474;46.510;6.686;2023-05-21T05:33:44;96055.00;;;12.41;100.00
57644;BME280;43474;46.510;6.686;2023-05-21T05:36:09;96053.44;;;12.46;100.00
57644;BME280;43474;46.510;6.686;2023-05-21T05:38:35;96061.41;;;12.46;100.00
57644;BME280;43474;46.510;6.686;2023-05-21T05:41:00;96057.97;;;12.50;100.00
57644;BME280;43474;46.510;6.686;2023-05-21T05:43:26;96043.66;;;12.56;100.00
57644;BME280;43474;46.510;6.686;2023-05-21T05:45:51;96067.97;;;12.80;100.00
57644;BME280;43474;46.510;6.686;2023-05-21T05:48:17;96074.41;;;12.89;100.00
57644;BME280;43474;46.510;6.686;2023-05-21T05:50:44;96068.56;;;12.98;100.00
57644;BME280;43474;46.510;6.686;2023-05-21T05:53:09;96051.56;;;12.99;100.00
57644;BME280;43474;46.510;6.686;2023-05-21T05:55:38;96061.44;;;13.08;100.00
57644;BME280;43474;46.510;6.686;2023-05-21T05:58:04;96036.66;;;13.03;100.00
57644;BME280;43474;46.510;6.686;2023-05-21T06:00:30;96050.91;;;13.29;100.00
57644;BME280;43474;46.510;6.686;2023-05-21T06:02:55;96049.31;;;13.33;100.00
57644;BME280;43474;46.510;6.686;2023-05-21T06:05:21;96040.78;;;13.31;100.00
57644;BME280;43474;46.510;6.686;2023-05-21T06:07:46;96051.22;;;13.53;100.00
57644;BME280;43474;46.510;6.686;2023-05-21T06:10:12;96052.81;;;13.59;100.00
57644;BME280;43474;46.510;6.686;2023-05-21T06:12:38;96048.31;;;13.64;100.00
57644;BME280;43474;46.510;6.686;2023-05-21T06:15:04;96043.25;;;13.68;100.00
57644;BME280;43474;46.510;6.686;2023-05-21T06:17:30;96055.22;;;13.86;100.00
57644;BME280;43474;46.510;6.686;2023-05-21T06:19:56;96055.22;;;13.96;100.00
57644;BME280;43474;46.510;6.686;2023-05-21T06:22:21;96053.63;;;13.95;100.00
57644;BME280;43474;46.510;6.686;2023-05-21T06:24:47;96046.72;;;13.99;100.00
57644;BME280;43474;46.510;6.686;2023-05-21T06:27:12;96060.31;;;14.13;100.00
57644;BME280;43474;46.510;6.686;2023-05-21T06:29:38;96049.09;;;14.26;100.00
57644;BME280;43474;46.510;6.686;2023-05-21T06:32:06;96056.81;;;14.38;100.00
57644;BME280;43474;46.510;6.686;2023-05-21T06:34:32;96049.63;;;14.54;100.00
57644;BME280;43474;46.510;6.686;2023-05-21T06:36:57;96062.38;;;14.57;100.00
57644;BME280;43474;46.510;6.686;2023-05-21T06:39:23;96044.56;;;14.52;100.00
57644;BME280;43474;46.510;6.686;2023-05-21T06:41:49;96060.44;;;14.88;100.00
57644;BME280;43474;46.510;6.686;2023-05-21T06:44:14;96058.56;;;14.93;100.00
57644;BME280;43474;46.510;6.686;2023-05-21T06:46:41;96050.78;;;15.07;100.00
57644;BME280;43474;46.510;6.686;2023-05-21T06:49:07;96057.09;;;15.27;100.00
57644;BME280;43474;46.510;6.686;2023-05-21T06:51:32;96063.09;;;15.52;100.00
57644;BME280;43474;46.510;6.686;2023-05-21T06:53:58;96068.19;;;15.93;100.00
57644;BME280;43474;46.510;6.686;2023-05-21T06:56:24;96062.34;;;16.20;100.00
57644;BME280;43474;46.510;6.686;2023-05-21T06:58:51;96058.97;;;16.39;100.00
57644;BME280;43474;46.510;6.686;2023-05-21T07:01:16;96057.47;;;16.57;100.00
57644;BME280;43474;46.510;6.686;2023-05-21T07:03:42;96060.53;;;16.74;100.00
57644;BME280;43474;46.510;6.686;2023-05-21T07:06:07;96043.59;;;17.02;100.00
57644;BME280;43474;46.510;6.686;2023-05-21T07:08:33;96045.19;;;17.46;100.00
57644;BME280;43474;46.510;6.686;2023-05-21T07:10:59;96046.91;;;17.94;100.00
57644;BME280;43474;46.510;6.686;2023-05-21T07:13:24;96056.75;;;17.98;100.00
57644;BME280;43474;46.510;6.686;2023-05-21T07:15:50;96046.47;;;18.05;100.00
57644;BME280;43474;46.510;6.686;2023-05-21T07:18:15;96043.00;;;18.19;100.00
57644;BME280;43474;46.510;6.686;2023-05-21T07:20:41;96029.72;;;17.95;100.00
57644;BME280;43474;46.510;6.686;2023-05-21T07:23:07;96031.44;;;18.04;100.00
57644;BME280;43474;46.510;6.686;2023-05-21T07:25:33;96040.41;;;17.81;100.00
57644;BME280;43474;46.510;6.686;2023-05-21T07:27:59;96061.03;;;17.62;100.00
57644;BME280;43474;46.510;6.686;2023-05-21T07:30:25;96054.16;;;17.37;100.00
57644;BME280;43474;46.510;6.686;2023-05-21T07:32:50;96047.50;;;17.53;100.00
57644;BME280;43474;46.510;6.686;2023-05-21T07:35:16;96042.09;;;17.77;100.00
57644;BME280;43474;46.510;6.686;2023-05-21T07:37:42;96037.81;;;17.76;100.00
57644;BME280;43474;46.510;6.686;2023-05-21T07:40:08;96041.56;;;17.75;100.00
57644;BME280;43474;46.510;6.686;2023-05-21T07:42:33;96049.44;;;17.85;100.00
57644;BME280;43474;46.510;6.686;2023-05-21T07:44:59;96047.78;;;17.89;100.00
57644;BME280;43474;46.510;6.686;2023-05-21T07:47:25;96042.84;;;17.96;100.00
57644;BME280;43474;46.510;6.686;2023-05-21T07:49:50;96047.34;;;18.01;100.00
57644;BME280;43474;46.510;6.686;2023-05-21T07:52:16;96043.41;;;18.12;100.00
57644;BME280;43474;46.510;6.686;2023-05-21T07:54:41;96046.22;;;18.21;100.00
57644;BME280;43474;46.510;6.686;2023-05-21T07:57:07;96035.00;;;18.00;100.00
57644;BME280;43474;46.510;6.686;2023-05-21T07:59:32;96036.41;;;18.30;100.00
57644;BME280;43474;46.510;6.686;2023-05-21T08:01:58;96040.91;;;18.62;100.00
57644;BME280;43474;46.510;6.686;2023-05-21T08:04:24;96047.84;;;19.09;100.00
57644;BME280;43474;46.510;6.686;2023-05-21T08:06:49;96033.47;;;19.28;100.00
57644;BME280;43474;46.510;6.686;2023-05-21T08:09:15;96052.72;;;19.57;100.00
57644;BME280;43474;46.510;6.686;2023-05-21T08:11:41;96049.31;;;19.79;100.00
57644;BME280;43474;46.510;6.686;2023-05-21T08:14:06;96041.09;;;19.48;100.00
57644;BME280;43474;46.510;6.686;2023-05-21T08:16:32;96055.38;;;19.35;100.00
57644;BME280;43474;46.510;6.686;2023-05-21T08:18:57;96045.94;;;18.96;100.00
57644;BME280;43474;46.510;6.686;2023-05-21T08:21:23;96056.22;;;18.62;100.00
57644;BME280;43474;46.510;6.686;2023-05-21T08:23:51;96046.66;;;18.42;100.00
57644;BME280;43474;46.510;6.686;2023-05-21T08:26:16;96047.66;;;18.59;100.00
57644;BME280;43474;46.510;6.686;2023-05-21T08:28:42;96050.50;;;18.68;100.00
57644;BME280;43474;46.510;6.686;2023-05-21T08:31:08;96043.06;;;19.06;100.00
57644;BME280;43474;46.510;6.686;2023-05-21T08:33:34;96049.88;;;19.90;99.53
57644;BME280;43474;46.510;6.686;2023-05-21T08:36:02;96061.28;;;20.18;96.99
57644;BME280;43474;46.510;6.686;2023-05-21T08:38:28;96045.69;;;19.84;96.90
57644;BME280;43474;46.510;6.686;2023-05-21T08:40:54;96038.09;;;19.63;99.45
57644;BME280;43474;46.510;6.686;2023-05-21T08:43:20;96042.50;;;19.46;98.85
57644;BME280;43474;46.510;6.686;2023-05-21T08:45:53;96042.72;;;19.22;100.00
57644;BME280;43474;46.510;6.686;2023-05-21T08:48:21;96045.63;;;18.84;100.00
57644;BME280;43474;46.510;6.686;2023-05-21T08:50:52;96034.38;;;18.68;100.00
57644;BME280;43474;46.510;6.686;2023-05-21T08:53:17;96049.16;;;18.52;100.00
57644;BME280;43474;46.510;6.686;2023-05-21T08:55:43;96042.75;;;18.34;100.00
57644;BME280;43474;46.510;6.686;2023-05-21T08:58:09;96053.47;;;18.34;100.00
57644;BME280;43474;46.510;6.686;2023-05-21T09:00:35;96044.06;;;18.37;100.00
57644;BME280;43474;46.510;6.686;2023-05-21T09:03:04;96048.59;;;18.69;100.00
57644;BME280;43474;46.510;6.686;2023-05-21T09:05:33;96048.13;;;18.80;100.00
57644;BME280;43474;46.510;6.686;2023-05-21T09:08:05;96047.69;;;19.28;100.00
57644;BME280;43474;46.510;6.686;2023-05-21T09:10:37;96049.72;;;19.73;99.34
57644;BME280;43474;46.510;6.686;2023-05-21T09:13:03;96043.06;;;20.15;96.96
57644;BME280;43474;46.510;6.686;2023-05-21T09:15:29;96054.75;;;20.55;100.00
57644;BME280;43474;46.510;6.686;2023-05-21T09:17:55;96045.78;;;20.69;94.63
57644;BME280;43474;46.510;6.686;2023-05-21T09:20:26;96040.22;;;20.65;95.01
57644;BME280;43474;46.510;6.686;2023-05-21T09:22:52;96046.53;;;20.60;95.23
57644;BME280;43474;46.510;6.686;2023-05-21T09:25:23;96041.97;;;21.18;95.13
57644;BME280;43474;46.510;6.686;2023-05-21T09:27:52;96050.66;;;21.63;94.22
57644;BME280;43474;46.510;6.686;2023-05-21T09:30:19;96045.72;;;21.91;91.63
57644;BME280;43474;46.510;6.686;2023-05-21T09:32:44;96048.28;;;21.97;88.34
57644;BME280;43474;46.510;6.686;2023-05-21T09:35:16;96049.69;;;21.59;85.84
57644;BME280;43474;46.510;6.686;2023-05-21T09:37:47;96052.56;;;21.54;91.16
57644;BME280;43474;46.510;6.686;2023-05-21T09:40:18;96044.94;;;21.65;90.47
57644;BME280;43474;46.510;6.686;2023-05-21T09:42:57;96046.53;;;21.92;90.47
57644;BME280;43474;46.510;6.686;2023-05-21T09:45:24;96050.66;;;21.72;84.50
57644;BME280;43474;46.510;6.686;2023-05-21T09:47:51;96056.38;;;21.53;83.46
57644;BME280;43474;46.510;6.686;2023-05-21T09:52:44;96043.66;;;21.45;84.49
57644;BME280;43474;46.510;6.686;2023-05-21T09:55:11;96070.16;;;21.60;83.17
57644;BME280;43474;46.510;6.686;2023-05-21T09:57:45;96060.16;;;21.44;84.32
57644;BME280;43474;46.510;6.686;2023-05-21T10:02:46;96054.03;;;21.21;87.86
57644;BME280;43474;46.510;6.686;2023-05-21T10:05:14;96054.84;;;21.30;84.78
57644;BME280;43474;46.510;6.686;2023-05-21T10:07:41;96070.00;;;21.83;86.91
57644;BME280;43474;46.510;6.686;2023-05-21T10:10:12;96049.38;;;21.96;83.51
57644;BME280;43474;46.510;6.686;2023-05-21T10:12:41;96058.75;;;22.24;84.24
57644;BME280;43474;46.510;6.686;2023-05-21T10:15:08;96061.13;;;22.17;78.13
57644;BME280;43474;46.510;6.686;2023-05-21T10:17:36;96053.66;;;22.31;79.92
57644;BME280;43474;46.510;6.686;2023-05-21T10:20:05;96059.06;;;22.31;88.31
57644;BME280;43474;46.510;6.686;2023-05-21T10:22:32;96054.78;;;22.04;82.83
57644;BME280;43474;46.510;6.686;2023-05-21T10:24:58;96053.03;;;22.00;82.30
57644;BME280;43474;46.510;6.686;2023-05-21T10:27:27;96040.19;;;22.05;82.05
57644;BME280;43474;46.510;6.686;2023-05-21T10:29:56;96049.53;;;22.08;78.05
57644;BME280;43474;46.510;6.686;2023-05-21T10:32:25;96041.13;;;21.75;80.36
57644;BME280;43474;46.510;6.686;2023-05-21T10:34:52;96059.06;;;22.05;83.01
57644;BME280;43474;46.510;6.686;2023-05-21T10:37:19;96038.44;;;22.09;84.52
57644;BME280;43474;46.510;6.686;2023-05-21T10:39:47;96047.13;;;22.32;79.50
57644;BME280;43474;46.510;6.686;2023-05-21T10:52:51;96039.09;;;21.89;82.11
57644;BME280;43474;46.510;6.686;2023-05-21T10:55:31;96038.09;;;22.92;82.76
57644;BME280;43474;46.510;6.686;2023-05-21T11:01:02;96036.75;;;22.60;73.81
57644;BME280;43474;46.510;6.686;2023-05-21T11:03:29;96034.31;;;22.21;76.30
57644;BME280;43474;46.510;6.686;2023-05-21T11:05:56;96044.75;;;22.39;81.01
57644;BME280;43474;46.510;6.686;2023-05-21T11:08:27;96047.47;;;21.96;76.42
57644;BME280;43474;46.510;6.686;2023-05-21T11:10:56;96035.91;;;21.96;76.40
57644;BME280;43474;46.510;6.686;2023-05-21T11:13:24;96045.09;;;21.51;75.58
57644;BME280;43474;46.510;6.686;2023-05-21T11:21:16;96050.28;;;21.30;83.39
57644;BME280;43474;46.510;6.686;2023-05-21T11:24:02;96043.34;;;21.47;78.40
57644;BME280;43474;46.510;6.686;2023-05-21T11:29:15;96051.44;;;21.64;82.51
57644;BME280;43474;46.510;6.686;2023-05-21T11:31:45;96040.31;;;21.57;76.99
57644;BME280;43474;46.510;6.686;2023-05-21T11:34:18;96037.78;;;21.52;81.31
57644;BME280;43474;46.510;6.686;2023-05-21T11:36:46;96044.56;;;21.32;76.21
57644;BME280;43474;46.510;6.686;2023-05-21T11:39:13;96048.56;;;21.34;81.26
57644;BME280;43474;46.510;6.686;2023-05-21T11:42:00;96047.34;;;21.09;79.91
57644;BME280;43474;46.510;6.686;2023-05-21T11:47:06;96035.50;;;21.19;79.39
57644;BME280;43474;46.510;6.686;2023-05-21T11:49:32;96035.25;;;20.89;73.98
57644;BME280;43474;46.510;6.686;2023-05-21T11:51:59;96041.25;;;21.35;80.01
57644;BME280;43474;46.510;6.686;2023-05-21T11:54:24;96023.94;;;21.19;79.27
57644;BME280;43474;46.510;6.686;2023-05-21T11:56:52;96027.38;;;21.10;79.66
57644;BME280;43474;46.510;6.686;2023-05-21T11:59:18;96041.44;;;21.38;86.17
57644;BME280;43474;46.510;6.686;2023-05-21T12:01:44;96042.91;;;21.05;76.63
57644;BME280;43474;46.510;6.686;2023-05-21T12:04:10;96031.19;;;21.09;78.97
57644;BME280;43474;46.510;6.686;2023-05-21T12:06:37;96040.78;;;21.41;79.18
57644;BME280;43474;46.510;6.686;2023-05-21T12:09:08;96030.75;;;21.25;86.12
57644;BME280;43474;46.510;6.686;2023-05-21T12:11:37;96037.34;;;21.01;85.56
57644;BME280;43474;46.510;6.686;2023-05-21T12:14:08;96022.72;;;20.85;84.85
57644;BME280;43474;46.510;6.686;2023-05-21T12:16:34;96029.78;;;20.72;87.32
57644;BME280;43474;46.510;6.686;2023-05-21T12:19:04;96037.94;;;20.50;83.66
57644;BME280;43474;46.510;6.686;2023-05-21T12:21:30;96034.19;;;20.37;83.14
57644;BME280;43474;46.510;6.686;2023-05-21T12:23:57;96018.81;;;20.37;84.96
57644;BME280;43474;46.510;6.686;2023-05-21T12:26:26;96016.91;;;20.38;89.67
57644;BME280;43474;46.510;6.686;2023-05-21T12:28:55;96031.75;;;20.27;83.23
57644;BME280;43474;46.510;6.686;2023-05-21T12:31:22;96020.25;;;20.44;87.02
57644;BME280;43474;46.510;6.686;2023-05-21T12:33:49;96022.66;;;20.14;86.25
57644;BME280;43474;46.510;6.686;2023-05-21T12:36:25;96029.78;;;20.19;84.81
57644;BME280;43474;46.510;6.686;2023-05-21T12:38:52;96023.31;;;20.20;84.72
57644;BME280;43474;46.510;6.686;2023-05-21T12:41:17;96020.91;;;20.40;89.50
57644;BME280;43474;46.510;6.686;2023-05-21T12:43:44;96012.91;;;20.27;87.33
57644;BME280;43474;46.510;6.686;2023-05-21T12:46:10;96017.50;;;20.26;88.20
57644;BME280;43474;46.510;6.686;2023-05-21T12:49:03;96006.66;;;20.40;89.09
57644;BME280;43474;46.510;6.686;2023-05-21T12:51:38;96015.59;;;20.49;84.88
57644;BME280;43474;46.510;6.686;2023-05-21T12:54:11;96017.03;;;20.24;86.37
57644;BME280;43474;46.510;6.686;2023-05-21T12:56:43;96024.28;;;20.24;86.32
57644;BME280;43474;46.510;6.686;2023-05-21T12:59:13;96016.13;;;20.37;86.47
57644;BME280;43474;46.510;6.686;2023-05-21T13:01:39;96016.91;;;20.38;85.79
57644;BME280;43474;46.510;6.686;2023-05-21T13:04:05;96018.63;;;20.56;89.56
57644;BME280;43474;46.510;6.686;2023-05-21T13:06:43;96018.34;;;20.67;83.92
57644;BME280;43474;46.510;6.686;2023-05-21T13:09:09;96032.41;;;20.95;86.38
57644;BME280;43474;46.510;6.686;2023-05-21T13:11:35;96019.59;;;21.00;80.27
57644;BME280;43474;46.510;6.686;2023-05-21T13:14:00;96027.84;;;21.12;79.49
57644;BME280;43474;46.510;6.686;2023-05-21T13:16:26;96017.41;;;21.20;81.16
57644;BME280;43474;46.510;6.686;2023-05-21T13:18:52;96021.91;;;21.33;88.33
57644;BME280;43474;46.510;6.686;2023-05-21T13:21:17;96005.34;;;21.17;81.66
57644;BME280;43474;46.510;6.686;2023-05-21T13:23:43;96018.69;;;21.13;85.91